createdAt,value
2023-02-24T00:01:05.143Z,34
2023-02-24T00:16:05.439Z,31
2023-02-24T00:31:05.467Z,32
2023-02-24T00:46:05.205Z,30
2023-02-24T01:01:05.121Z,32
2023-02-24T01:16:05.516Z,43
2023-02-24T01:31:05.740Z,35
2023-02-24T01:46:05.245Z,35
2023-02-24T02:01:04.922Z,33
2023-02-24T02:16:05.287Z,34
2023-02-24T02:31:05.284Z,35
2023-02-24T02:46:05.456Z,32
2023-02-24T03:01:05.313Z,33
2023-02-24T03:16:04.754Z,31
2023-02-24T03:31:05.699Z,33
2023-02-24T03:46:04.800Z,40
2023-02-24T04:01:06.065Z,45
2023-02-24T04:16:05.546Z,50
2023-02-24T04:31:05.790Z,53
2023-02-24T04:46:05.801Z,59
2023-02-24T05:01:05.561Z,64
2023-02-24T05:16:04.748Z,75
2023-02-24T05:31:05.356Z,72
2023-02-24T05:46:05.706Z,75
2023-02-24T06:01:05.829Z,74
2023-02-24T06:16:04.704Z,64
2023-02-24T06:31:05.511Z,69
2023-02-24T06:46:05.577Z,62
2023-02-24T07:01:05.453Z,62
2023-02-24T07:16:04.988Z,74
2023-02-24T07:31:05.332Z,75
2023-02-24T07:46:05.125Z,90
2023-02-24T08:01:05.110Z,88
2023-02-24T08:16:04.966Z,92
2023-02-24T08:31:05.155Z,86
2023-02-24T08:46:05.649Z,94
2023-02-24T09:01:05.141Z,88
2023-02-24T09:16:05.907Z,97
2023-02-24T09:31:05.575Z,103
2023-02-24T09:46:05.367Z,106
2023-02-24T10:01:05.740Z,126
2023-02-24T10:16:07.669Z,116
2023-02-24T10:31:05.253Z,97
2023-02-24T10:46:06.419Z,95
2023-02-24T11:01:05.215Z,83
2023-02-24T11:16:04.966Z,81
2023-02-24T11:31:05.339Z,63
2023-02-24T11:46:05.376Z,77
2023-02-24T12:01:05.661Z,57
2023-02-24T12:16:05.670Z,59
2023-02-24T12:31:05.318Z,70
2023-02-24T12:46:05.802Z,85
2023-02-24T13:01:05.395Z,66
2023-02-24T13:16:05.514Z,80
2023-02-24T13:31:05.254Z,75
2023-02-24T13:46:05.601Z,73
2023-02-24T14:01:05.018Z,83
2023-02-24T14:16:05.134Z,94
2023-02-24T14:31:05.174Z,31
2023-02-24T14:46:06.167Z,87
2023-02-24T15:01:05.355Z,90
2023-02-24T15:16:05.907Z,86
2023-02-24T15:31:05.487Z,85
2023-02-24T15:46:05.157Z,118
2023-02-24T16:01:05.219Z,74
2023-02-24T16:16:05.276Z,52
2023-02-24T16:31:05.721Z,52
2023-02-24T16:46:06.086Z,67
2023-02-24T17:01:05.957Z,74
2023-02-24T17:16:05.383Z,40
2023-02-24T17:31:05.943Z,47
2023-02-24T17:46:07.630Z,44
2023-02-24T18:01:04.544Z,80
2023-02-24T18:16:05.519Z,50
2023-02-24T18:31:05.676Z,54
2023-02-24T18:46:04.801Z,51
2023-02-24T19:01:05.484Z,46
2023-02-24T19:16:05.681Z,41
2023-02-24T19:31:05.580Z,88
2023-02-24T19:46:05.605Z,46
2023-02-24T20:01:05.613Z,48
2023-02-24T20:16:05.832Z,53
2023-02-24T20:31:05.047Z,72
2023-02-24T20:46:05.266Z,59
2023-02-24T21:01:05.507Z,73
2023-02-24T21:16:05.619Z,101
2023-02-24T21:31:05.716Z,73
2023-02-24T21:46:09.977Z,130
2023-02-24T22:01:04.996Z,81
2023-02-24T22:16:05.046Z,64
2023-02-24T22:31:05.198Z,78
2023-02-24T22:46:05.593Z,76
2023-02-24T23:01:05.694Z,45
2023-02-24T23:16:05.644Z,39
2023-02-24T23:31:05.659Z,71
2023-02-24T23:46:05.419Z,110
